Time;durP1;ratioP1;P1;durP2;ratioP2;P2;SDS_P1;SDS_P2;PMS_P1;PMS_P2;Temp;Humidity;BMP_temperature;BMP_pressure;BME280_temperature;BME280_humidity;BME280_pressure;Samples;Min_cycle;Max_cycle;Signal;HPM_P1;HPM_P2
2023/12/19 00:01:46;;;;;;;;;;;;;;;17.37;67.74;102025.44;7393846;19;1773;-41
2023/12/19 00:04:15;;;;;;;;;;;;;;;17.30;68.07;102032.09;7394405;19;1078;-41
2023/12/19 00:06:45;;;;;;;;;;;;;;;17.65;67.04;102026.41;7391910;19;1901;-41
2023/12/19 00:09:14;;;;;;;;;;;;;;;18.00;66.19;102023.31;7392576;19;1536;-41
2023/12/19 00:11:42;;;;;;;;;;;;;;;17.97;66.09;102026.22;7391953;19;1501;-41
2023/12/19 00:14:11;;;;;;;;;;;;;;;17.71;66.61;102020.66;7391982;19;1439;-41
2023/12/19 00:16:39;;;;;;;;;;;;;;;17.58;67.03;102017.03;7392385;19;1855;-41
2023/12/19 00:19:09;;;;;;;;;;;;;;;17.49;67.17;102005.09;7393712;19;1484;-41
2023/12/19 00:21:37;;;;;;;;;;;;;;;17.34;67.51;102022.94;7393181;19;1893;-41
2023/12/19 00:24:09;;;;;;;;;;;;;;;17.30;67.52;102029.44;7392981;19;1824;-41
2023/12/19 00:26:37;;;;;;;;;;;;;;;17.41;67.32;102029.63;7390107;19;1594;-41
2023/12/19 00:29:06;;;;;;;;;;;;;;;17.72;66.58;102029.53;7392953;19;1830;-41
2023/12/19 00:31:34;;;;;;;;;;;;;;;18.05;65.57;102039.97;7392551;19;1504;-41
2023/12/19 00:34:02;;;;;;;;;;;;;;;17.81;66.20;102031.66;7392930;19;1410;-41
2023/12/19 00:36:30;;;;;;;;;;;;;;;17.61;66.42;102040.94;7390442;19;1775;-41
2023/12/19 00:38:59;;;;;;;;;;;;;;;17.49;66.68;102039.88;7375201;19;1842;-41
2023/12/19 00:41:30;;;;;;;;;;;;;;;17.45;66.88;102033.00;7390761;19;1573;-40
2023/12/19 00:44:00;;;;;;;;;;;;;;;17.32;67.10;102038.22;7391370;19;1557;-41
2023/12/19 00:46:28;;;;;;;;;;;;;;;17.26;67.16;102030.56;7391004;19;1844;-41
2023/12/19 00:48:56;;;;;;;;;;;;;;;17.21;67.46;102038.00;7392117;19;1562;-41
2023/12/19 00:51:25;;;;;;;;;;;;;;;17.19;67.93;102039.91;7390939;19;1495;-41
2023/12/19 00:53:53;;;;;;;;;;;;;;;17.79;66.14;102030.88;7391897;19;1629;-41
2023/12/19 00:56:21;;;;;;;;;;;;;;;18.05;65.09;102039.97;7391736;19;1465;-40
2023/12/19 00:58:52;;;;;;;;;;;;;;;17.81;65.50;102021.81;7389743;19;1841;-41
2023/12/19 01:01:24;;;;;;;;;;;;;;;17.57;65.92;102024.19;7390463;19;1590;-41
2023/12/19 01:03:52;;;;;;;;;;;;;;;17.48;66.40;102022.94;7392144;19;1397;-43
2023/12/19 01:06:21;;;;;;;;;;;;;;;17.38;66.82;102021.78;7390735;19;1417;-41
2023/12/19 01:08:49;;;;;;;;;;;;;;;17.32;66.85;102034.69;7391479;19;1567;-41
2023/12/19 01:11:18;;;;;;;;;;;;;;;17.28;67.13;102023.31;7390787;19;1460;-41
2023/12/19 01:13:46;;;;;;;;;;;;;;;17.59;66.06;102011.59;7391265;19;1389;-41
2023/12/19 01:16:18;;;;;;;;;;;;;;;17.96;65.11;102013.78;7390997;19;1882;-41
2023/12/19 01:18:47;;;;;;;;;;;;;;;18.18;64.60;102008.75;7389866;19;1868;-41
2023/12/19 01:21:16;;;;;;;;;;;;;;;18.31;64.14;102010.66;7389507;19;1854;-41
2023/12/19 01:23:44;;;;;;;;;;;;;;;18.16;64.20;102031.22;7390639;19;1463;-41
2023/12/19 01:26:12;;;;;;;;;;;;;;;17.76;64.92;102033.75;7390361;19;1430;-41
2023/12/19 01:28:42;;;;;;;;;;;;;;;17.57;65.67;102026.88;7390430;19;1510;-40
2023/12/19 01:31:10;;;;;;;;;;;;;;;17.44;66.25;102024.09;7390331;19;1583;-40
2023/12/19 01:33:41;;;;;;;;;;;;;;;17.43;66.16;102032.22;7390388;19;1015;-41
2023/12/19 01:36:10;;;;;;;;;;;;;;;17.27;66.44;102024.28;7389395;19;1590;-41
2023/12/19 01:38:38;;;;;;;;;;;;;;;17.34;66.35;102027.44;7377316;19;1842;-40
2023/12/19 01:41:07;;;;;;;;;;;;;;;17.63;65.66;102026.50;7397196;19;1578;-41
2023/12/19 01:43:35;;;;;;;;;;;;;;;17.95;64.90;102012.06;7397034;19;1584;-41
2023/12/19 01:46:03;;;;;;;;;;;;;;;18.25;64.21;102036.84;7396266;19;1522;-40
2023/12/19 01:48:32;;;;;;;;;;;;;;;18.13;64.28;102018.91;7396631;19;1914;-40
2023/12/19 01:51:02;;;;;;;;;;;;;;;17.77;64.35;102009.56;7398025;19;1392;-41
2023/12/19 01:53:31;;;;;;;;;;;;;;;17.63;65.48;102020.28;7397012;19;1486;-41
2023/12/19 01:56:00;;;;;;;;;;;;;;;17.48;65.90;102008.72;7397214;19;1600;-41
2023/12/19 01:58:29;;;;;;;;;;;;;;;17.36;66.14;102010.34;7399004;19;1838;-41
2023/12/19 02:00:58;;;;;;;;;;;;;;;17.20;66.41;102004.22;7400848;19;1472;-45
2023/12/19 02:03:26;;;;;;;;;;;;;;;17.27;66.24;102026.97;7400740;19;1401;-46
2023/12/19 02:05:55;;;;;;;;;;;;;;;17.70;65.19;102021.59;7397123;19;1495;-41
2023/12/19 02:08:26;;;;;;;;;;;;;;;18.11;64.00;102023.50;7397440;19;1459;-41
2023/12/19 02:10:55;;;;;;;;;;;;;;;18.03;63.95;102002.59;7396583;19;1481;-41
2023/12/19 02:13:23;;;;;;;;;;;;;;;17.72;63.97;102011.66;7397093;19;1787;-41
2023/12/19 02:15:52;;;;;;;;;;;;;;;17.58;65.00;102003.66;7397815;19;1441;-41
2023/12/19 02:18:21;;;;;;;;;;;;;;;17.40;65.70;101994.97;7396446;19;1845;-41
2023/12/19 02:20:50;;;;;;;;;;;;;;;17.34;65.61;102006.91;7396872;19;1418;-41
2023/12/19 02:23:21;;;;;;;;;;;;;;;17.17;66.16;101986.56;7396823;19;1417;-41
2023/12/19 02:25:50;;;;;;;;;;;;;;;17.32;65.99;101992.75;7395330;19;1504;-40
2023/12/19 02:28:18;;;;;;;;;;;;;;;17.71;64.69;101983.22;7398037;19;1589;-41
2023/12/19 02:30:47;;;;;;;;;;;;;;;18.11;63.65;101990.53;7395320;19;1579;-41
2023/12/19 02:33:15;;;;;;;;;;;;;;;18.71;62.20;101992.78;7399033;19;1400;-41
2023/12/19 02:35:43;;;;;;;;;;;;;;;19.22;60.54;101979.47;7397248;19;1508;-41
2023/12/19 02:38:12;;;;;;;;;;;;;;;19.14;60.48;101940.72;7388353;19;1853;-41
2023/12/19 02:40:43;;;;;;;;;;;;;;;19.58;59.79;101971.59;7395006;19;1511;-41
2023/12/19 02:43:11;;;;;;;;;;;;;;;19.60;59.67;101956.25;7395937;19;1504;-41
2023/12/19 02:45:39;;;;;;;;;;;;;;;19.64;59.48;101968.47;7396710;19;1230;-41
2023/12/19 02:48:08;;;;;;;;;;;;;;;19.21;60.73;101960.78;7398499;19;1467;-41
2023/12/19 02:50:37;;;;;;;;;;;;;;;19.09;61.07;101970.56;7396855;19;1532;-41
2023/12/19 02:53:05;;;;;;;;;;;;;;;19.35;60.28;101971.41;7398076;19;1380;-41
2023/12/19 02:55:33;;;;;;;;;;;;;;;19.43;60.31;101962.81;7399448;19;1443;-41
2023/12/19 02:58:04;;;;;;;;;;;;;;;19.29;60.03;101926.25;7398246;19;1895;-41
2023/12/19 03:00:32;;;;;;;;;;;;;;;19.42;60.03;101964.66;7399673;19;1898;-41
2023/12/19 03:03:01;;;;;;;;;;;;;;;19.44;60.13;101970.75;7398568;19;1757;-40
2023/12/19 03:05:29;;;;;;;;;;;;;;;19.42;60.07;101964.66;7397394;19;1411;-41
2023/12/19 03:07:57;;;;;;;;;;;;;;;19.47;60.11;101965.16;7397986;19;1504;-41
2023/12/19 03:10:26;;;;;;;;;;;;;;;19.43;59.97;101963.66;7397486;19;1504;-41
2023/12/19 03:12:54;;;;;;;;;;;;;;;19.35;60.32;101955.31;7398016;19;1581;-41
2023/12/19 03:15:26;;;;;;;;;;;;;;;19.49;59.94;101954.31;7395616;19;1395;-41
2023/12/19 03:17:54;;;;;;;;;;;;;;;19.44;59.97;101954.66;7394746;19;1857;-40
2023/12/19 03:20:22;;;;;;;;;;;;;;;19.54;59.84;101949.50;7395177;19;1572;-40
2023/12/19 03:22:51;;;;;;;;;;;;;;;19.64;59.67;101963.97;7395107;19;1524;-41
2023/12/19 03:25:22;;;;;;;;;;;;;;;19.67;59.48;101963.72;7394690;19;1463;-41
2023/12/19 03:27:50;;;;;;;;;;;;;;;19.78;59.28;101975.56;7394962;19;1515;-41
2023/12/19 03:30:19;;;;;;;;;;;;;;;19.66;59.37;101961.16;7394015;19;1504;-41
2023/12/19 03:32:49;;;;;;;;;;;;;;;19.68;59.68;101980.72;7395460;19;1460;-41
2023/12/19 03:35:18;;;;;;;;;;;;;;;19.71;59.41;101964.41;7393026;19;1583;-41
2023/12/19 03:37:47;;;;;;;;;;;;;;;19.71;59.47;101967.06;7393553;19;1878;-41
2023/12/19 03:40:15;;;;;;;;;;;;;;;19.76;59.37;101964.94;7379345;19;1216;-41
2023/12/19 03:42:44;;;;;;;;;;;;;;;19.77;59.17;101961.25;7392857;19;1567;-40
2023/12/19 03:45:12;;;;;;;;;;;;;;;19.68;59.39;101972.66;7393349;19;1242;-41
2023/12/19 03:47:41;;;;;;;;;;;;;;;19.72;59.26;101992.97;7393756;19;1397;-41
2023/12/19 03:50:12;;;;;;;;;;;;;;;19.76;59.52;101988.25;7394501;19;1218;-41
2023/12/19 03:52:41;;;;;;;;;;;;;;;19.65;59.54;101987.13;7393181;19;1590;-41
2023/12/19 03:55:10;;;;;;;;;;;;;;;19.69;59.43;101993.13;7393403;19;2001;-41
2023/12/19 03:57:38;;;;;;;;;;;;;;;19.69;59.43;102003.88;7392876;19;1510;-41
2023/12/19 04:00:08;;;;;;;;;;;;;;;19.55;59.51;101969.97;7390745;19;1838;-41
2023/12/19 04:02:36;;;;;;;;;;;;;;;18.96;61.06;101991.13;7392469;19;1522;-41
2023/12/19 04:05:05;;;;;;;;;;;;;;;18.58;62.31;101994.53;7392953;19;1582;-41
2023/12/19 04:07:36;;;;;;;;;;;;;;;18.21;63.12;101987.16;7393528;19;1496;-41
2023/12/19 04:10:04;;;;;;;;;;;;;;;18.44;62.69;101984.75;7391500;19;1492;-41
2023/12/19 04:12:32;;;;;;;;;;;;;;;18.94;61.14;101991.25;7392043;19;1868;-41
2023/12/19 04:15:01;;;;;;;;;;;;;;;18.90;61.49;101987.06;7392519;19;1491;-41
2023/12/19 04:17:29;;;;;;;;;;;;;;;18.98;61.44;101979.34;7391959;19;1477;-41
2023/12/19 04:19:57;;;;;;;;;;;;;;;18.86;61.61;101977.47;7390826;19;1853;-41
2023/12/19 04:22:26;;;;;;;;;;;;;;;18.46;61.84;101985.50;7389887;19;1459;-41
2023/12/19 04:24:56;;;;;;;;;;;;;;;18.13;63.01;101975.22;7393053;19;1463;-41
2023/12/19 04:27:25;;;;;;;;;;;;;;;17.79;63.54;101980.91;7392797;19;1534;-41
2023/12/19 04:29:55;;;;;;;;;;;;;;;17.72;64.14;102000.97;7392915;19;1523;-41
2023/12/19 04:32:24;;;;;;;;;;;;;;;18.04;63.51;101990.06;7392611;19;1748;-41
2023/12/19 04:34:52;;;;;;;;;;;;;;;18.45;62.40;101975.78;7392163;19;1580;-41
2023/12/19 04:37:20;;;;;;;;;;;;;;;18.49;62.38;101988.00;7389256;19;2529;-40
2023/12/19 04:39:49;;;;;;;;;;;;;;;18.26;62.91;101985.03;7375771;19;1863;-41
2023/12/19 04:42:20;;;;;;;;;;;;;;;18.12;63.08;101994.91;7392752;19;1455;-40
2023/12/19 04:44:48;;;;;;;;;;;;;;;18.45;62.41;101986.50;7391956;19;1428;-41
2023/12/19 04:47:17;;;;;;;;;;;;;;;18.93;61.15;101988.66;7392084;19;1594;-41
2023/12/19 04:49:45;;;;;;;;;;;;;;;19.05;60.97;101972.56;7390723;19;1577;-41
2023/12/19 04:52:13;;;;;;;;;;;;;;;18.71;61.83;101999.97;7391060;19;1763;-41
2023/12/19 04:54:42;;;;;;;;;;;;;;;18.29;62.84;102000.88;7389953;19;1585;-41
2023/12/19 04:57:10;;;;;;;;;;;;;;;18.21;63.19;102000.53;7388755;19;1942;-40
2023/12/19 04:59:41;;;;;;;;;;;;;;;18.48;62.66;102000.53;7390126;19;1856;-41
2023/12/19 05:02:09;;;;;;;;;;;;;;;18.66;62.18;102009.16;7387041;19;1647;-41
2023/12/19 05:04:38;;;;;;;;;;;;;;;18.92;61.36;102011.06;7386449;19;1255;-41
2023/12/19 05:07:06;;;;;;;;;;;;;;;19.05;60.76;102031.56;7388427;19;1097;-41
2023/12/19 05:09:34;;;;;;;;;;;;;;;18.97;60.91;102023.19;7385730;19;1826;-41
2023/12/19 05:12:02;;;;;;;;;;;;;;;19.00;60.99;102023.00;7387705;19;1732;-41
2023/12/19 05:14:31;;;;;;;;;;;;;;;19.03;61.02;102019.22;7386754;19;1576;-41
2023/12/19 05:17:03;;;;;;;;;;;;;;;18.98;61.00;102019.56;7390958;19;1496;-41
2023/12/19 05:19:32;;;;;;;;;;;;;;;19.11;60.54;102029.44;7389712;19;1843;-41
2023/12/19 05:22:00;;;;;;;;;;;;;;;19.08;60.74;102044.78;7391776;19;1643;-41
2023/12/19 05:24:32;;;;;;;;;;;;;;;19.01;60.97;102029.19;7392181;19;1101;-41
2023/12/19 05:27:00;;;;;;;;;;;;;;;19.01;61.09;102023.84;7392774;19;964;-40
2023/12/19 05:29:28;;;;;;;;;;;;;;;19.03;60.91;101995.09;7391627;19;1929;-41
2023/12/19 05:31:57;;;;;;;;;;;;;;;18.98;60.96;102019.56;7391704;19;1771;-41
2023/12/19 05:34:28;;;;;;;;;;;;;;;19.01;60.72;102030.06;7392212;19;1420;-41
2023/12/19 05:36:56;;;;;;;;;;;;;;;18.94;60.57;102017.16;7392581;19;995;-41
2023/12/19 05:39:24;;;;;;;;;;;;;;;18.99;60.59;102015.91;7376192;19;1867;-40
2023/12/19 05:41:56;;;;;;;;;;;;;;;19.08;59.52;102017.97;7391667;19;1495;-41
2023/12/19 05:44:24;;;;;;;;;;;;;;;19.00;59.83;102006.03;7390407;19;1525;-40
2023/12/19 05:46:53;;;;;;;;;;;;;;;19.03;59.75;102017.41;7390779;19;1628;-40
2023/12/19 05:49:21;;;;;;;;;;;;;;;19.06;59.82;102005.63;7391614;19;1478;-40
2023/12/19 05:51:52;;;;;;;;;;;;;;;19.16;59.91;102011.19;7390870;19;1534;-40
2023/12/19 05:54:20;;;;;;;;;;;;;;;19.18;59.50;102014.63;7391285;19;1734;-40
2023/12/19 05:56:50;;;;;;;;;;;;;;;18.94;58.99;102010.00;7389177;19;1607;-41
2023/12/19 05:59:18;;;;;;;;;;;;;;;18.84;59.35;102014.25;7387367;19;1853;-40
2023/12/19 06:01:46;;;;;;;;;;;;;;;18.92;59.06;102014.63;7387308;19;1350;-41
2023/12/19 06:04:15;;;;;;;;;;;;;;;18.89;58.97;101998.72;7387368;19;1044;-41
2023/12/19 06:06:44;;;;;;;;;;;;;;;18.88;58.99;102015.78;7385582;19;1903;-41
2023/12/19 06:09:15;;;;;;;;;;;;;;;18.86;58.76;101998.94;7383912;19;1914;-41
2023/12/19 06:11:43;;;;;;;;;;;;;;;18.88;58.65;102008.59;7386106;19;1581;-41
2023/12/19 06:14:11;;;;;;;;;;;;;;;18.86;58.73;102006.97;7386073;19;1746;-40
2023/12/19 06:16:40;;;;;;;;;;;;;;;18.94;58.52;102018.06;7390259;19;1791;-40
2023/12/19 06:19:08;;;;;;;;;;;;;;;18.92;58.47;102003.91;7389999;19;1815;-41
2023/12/19 06:21:36;;;;;;;;;;;;;;;18.94;57.98;102007.34;7389648;19;1480;-40
2023/12/19 06:24:05;;;;;;;;;;;;;;;19.03;57.84;101990.59;7389380;19;1508;-41
2023/12/19 06:26:36;;;;;;;;;;;;;;;19.04;57.60;102008.41;7382598;19;1889;-41
2023/12/19 06:29:04;;;;;;;;;;;;;;;18.97;57.71;101996.38;7395120;19;1156;-41
2023/12/19 06:31:33;;;;;;;;;;;;;;;18.98;57.81;101992.75;7394246;19;1826;-41
2023/12/19 06:34:01;;;;;;;;;;;;;;;18.94;57.84;102004.66;7396538;19;1027;-41
2023/12/19 06:36:31;;;;;;;;;;;;;;;19.00;57.67;102000.66;7395299;19;1932;-41
2023/12/19 06:39:00;;;;;;;;;;;;;;;19.03;58.02;102006.69;7395479;19;1845;-41
2023/12/19 06:41:28;;;;;;;;;;;;;;;19.10;57.77;102011.63;7381778;19;1415;-41
2023/12/19 06:43:59;;;;;;;;;;;;;;;19.06;57.90;102000.28;7396528;19;1301;-41
2023/12/19 06:46:27;;;;;;;;;;;;;;;19.10;58.05;102011.63;7394822;19;1683;-40
2023/12/19 06:48:56;;;;;;;;;;;;;;;19.04;57.94;102004.88;7394982;19;1950;-41
2023/12/19 06:51:24;;;;;;;;;;;;;;;18.90;57.99;101979.03;7395020;19;1745;-41
2023/12/19 06:53:53;;;;;;;;;;;;;;;19.00;58.31;101979.22;7395437;19;1503;-41
2023/12/19 06:56:26;;;;;;;;;;;;;;;19.04;58.32;102000.38;7395240;19;1745;-41
2023/12/19 06:58:55;;;;;;;;;;;;;;;19.05;58.30;102003.91;7394433;19;1881;-41
2023/12/19 07:01:26;;;;;;;;;;;;;;;19.06;58.29;102016.34;7395381;19;1405;-40
2023/12/19 07:03:54;;;;;;;;;;;;;;;19.11;58.24;102003.47;7395643;19;1129;-42
2023/12/19 07:06:23;;;;;;;;;;;;;;;19.17;58.26;102018.28;7394240;19;1826;-41
2023/12/19 07:08:51;;;;;;;;;;;;;;;19.11;58.51;101999.94;7390850;19;1243;-41
2023/12/19 07:11:20;;;;;;;;;;;;;;;19.13;58.51;102011.41;7395563;19;1829;-41
2023/12/19 07:13:49;;;;;;;;;;;;;;;19.21;58.46;102015.28;7395593;19;1143;-41
2023/12/19 07:16:17;;;;;;;;;;;;;;;19.17;58.62;102002.19;7394799;19;1516;-41
2023/12/19 07:18:49;;;;;;;;;;;;;;;19.19;58.26;101997.59;7393458;19;1925;-39
2023/12/19 07:21:21;;;;;;;;;;;;;;;18.90;58.99;102000.47;7391560;19;1863;-41
2023/12/19 07:23:50;;;;;;;;;;;;;;;18.54;59.94;102001.94;7390633;19;1564;-41
2023/12/19 07:26:22;;;;;;;;;;;;;;;18.29;60.75;102008.91;7393710;19;1592;-41
2023/12/19 07:28:51;;;;;;;;;;;;;;;18.12;61.25;102008.28;7393141;19;1629;-41
2023/12/19 07:31:23;;;;;;;;;;;;;;;17.98;61.49;102004.69;7394870;19;1488;-41
2023/12/19 07:33:56;;;;;;;;;;;;;;;18.20;61.21;101995.28;7394863;19;1103;-41
2023/12/19 07:36:24;;;;;;;;;;;;;;;18.53;60.58;102008.25;7392151;19;1598;-42
2023/12/19 07:38:53;;;;;;;;;;;;;;;18.89;59.67;102017.50;7394393;19;1747;-41
2023/12/19 07:41:22;;;;;;;;;;;;;;;19.08;59.05;102001.88;7378033;19;1856;-40
2023/12/19 07:43:51;;;;;;;;;;;;;;;19.01;58.97;101999.72;7393327;19;1351;-41
2023/12/19 07:46:20;;;;;;;;;;;;;;;18.67;59.91;101994.78;7393233;19;1730;-42
2023/12/19 07:48:48;;;;;;;;;;;;;;;18.42;60.67;101995.59;7391559;19;1503;-41
2023/12/19 07:51:23;;;;;;;;;;;;;;;18.22;61.16;101980.84;7392318;19;1678;-40
2023/12/19 07:53:51;;;;;;;;;;;;;;;18.08;61.55;101976.38;7391749;19;1299;-40
2023/12/19 07:56:19;;;;;;;;;;;;;;;18.02;61.71;101975.91;7391667;19;1671;-40
2023/12/19 07:58:48;;;;;;;;;;;;;;;18.43;60.77;101972.34;7392513;19;1664;-41
2023/12/19 08:01:16;;;;;;;;;;;;;;;18.85;59.92;101983.81;7390531;19;1837;-41
2023/12/19 08:03:45;;;;;;;;;;;;;;;18.88;59.81;101989.84;7393632;19;972;-41
2023/12/19 08:06:14;;;;;;;;;;;;;;;18.59;60.51;101964.97;7390149;19;1553;-41
2023/12/19 08:08:47;;;;;;;;;;;;;;;18.43;61.03;101991.09;7392761;19;1834;-40
2023/12/19 08:11:16;;;;;;;;;;;;;;;18.22;61.47;101978.16;7392973;19;1603;-42
2023/12/19 08:13:44;;;;;;;;;;;;;;;18.11;61.96;101969.97;7393877;19;999;-41
2023/12/19 08:16:12;;;;;;;;;;;;;;;18.29;61.40;101978.59;7391727;19;1591;-41
2023/12/19 08:18:41;;;;;;;;;;;;;;;18.89;60.09;101977.28;7392027;19;1476;-40
2023/12/19 08:21:09;;;;;;;;;;;;;;;19.20;59.33;101969.78;7389199;19;1920;-40
2023/12/19 08:23:38;;;;;;;;;;;;;;;19.02;59.72;101972.81;7391774;19;1835;-41
2023/12/19 08:26:10;;;;;;;;;;;;;;;18.72;60.27;101959.66;7390726;19;1549;-41
2023/12/19 08:28:38;;;;;;;;;;;;;;;18.53;60.99;101984.16;7393217;19;1039;-41
2023/12/19 08:31:07;;;;;;;;;;;;;;;18.37;61.22;101970.91;7392639;19;1121;-39
2023/12/19 08:33:36;;;;;;;;;;;;;;;18.32;61.64;101966.81;7390622;19;1929;-40
2023/12/19 08:36:04;;;;;;;;;;;;;;;18.23;61.99;101953.09;7390862;19;1524;-41
2023/12/19 08:38:32;;;;;;;;;;;;;;;18.77;60.66;101962.88;7391393;19;1400;-41
2023/12/19 08:41:01;;;;;;;;;;;;;;;19.07;59.84;101951.03;7374492;19;1856;-41
2023/12/19 08:43:33;;;;;;;;;;;;;;;19.01;59.86;101948.78;7390313;19;1824;-40
2023/12/19 08:46:01;;;;;;;;;;;;;;;18.77;60.40;101949.47;7390742;19;1046;-40
2023/12/19 08:48:29;;;;;;;;;;;;;;;18.52;61.02;101952.94;7388889;19;1508;-40
2023/12/19 08:50:58;;;;;;;;;;;;;;;18.38;61.38;101932.47;7391834;19;1723;-41
2023/12/19 08:53:26;;;;;;;;;;;;;;;18.24;62.02;101944.13;7390486;19;1392;-41
2023/12/19 08:55:54;;;;;;;;;;;;;;;18.22;62.03;101940.69;7390009;19;1398;-40
2023/12/19 08:58:23;;;;;;;;;;;;;;;18.54;61.40;101929.59;7390767;19;1730;-41
2023/12/19 09:00:54;;;;;;;;;;;;;;;19.02;59.98;101913.84;7389425;19;1845;-41
2023/12/19 09:03:23;;;;;;;;;;;;;;;19.15;59.60;101907.59;7391425;19;1101;-39
2023/12/19 09:05:51;;;;;;;;;;;;;;;18.93;60.17;101909.09;7389581;19;1838;-41
2023/12/19 09:08:23;;;;;;;;;;;;;;;18.72;60.75;101913.22;7390653;19;1122;-40
2023/12/19 09:10:52;;;;;;;;;;;;;;;18.50;61.16;101890.59;7391904;19;1822;-39
2023/12/19 09:13:21;;;;;;;;;;;;;;;18.39;61.43;101895.84;7390287;19;1842;-39
2023/12/19 09:15:50;;;;;;;;;;;;;;;18.33;61.51;101893.59;7390846;19;1891;-41
2023/12/19 09:18:24;;;;;;;;;;;;;;;18.27;61.74;101889.50;7390435;19;1564;-41
2023/12/19 09:20:52;;;;;;;;;;;;;;;18.85;60.38;101909.63;7389283;19;1842;-42
2023/12/19 09:23:20;;;;;;;;;;;;;;;19.18;59.67;101872.50;7389264;19;1612;-40
2023/12/19 09:25:48;;;;;;;;;;;;;;;19.07;59.92;101879.50;7389179;19;1425;-41
2023/12/19 09:28:17;;;;;;;;;;;;;;;18.79;60.32;101872.53;7388479;19;1597;-43
2023/12/19 09:30:45;;;;;;;;;;;;;;;18.61;60.80;101861.25;7388038;19;1751;-40
2023/12/19 09:33:13;;;;;;;;;;;;;;;18.46;61.05;101852.47;7390772;19;1112;-39
2023/12/19 09:35:44;;;;;;;;;;;;;;;18.35;61.44;101846.13;7388577;19;1838;-41
2023/12/19 09:38:13;;;;;;;;;;;;;;;18.28;61.85;101851.91;7389227;19;1740;-40
2023/12/19 09:40:41;;;;;;;;;;;;;;;18.62;60.94;101836.19;7374361;19;1836;-41
2023/12/19 09:43:10;;;;;;;;;;;;;;;19.13;59.80;101834.47;7390103;19;1486;-41
2023/12/19 09:45:38;;;;;;;;;;;;;;;19.21;59.60;101845.47;7389721;19;1679;-41
2023/12/19 09:48:08;;;;;;;;;;;;;;;18.92;59.98;101824.31;7388799;19;1214;-41
2023/12/19 09:50:39;;;;;;;;;;;;;;;18.69;60.90;101832.09;7390163;19;1821;-41
2023/12/19 09:53:10;;;;;;;;;;;;;;;18.53;61.04;101831.47;7389868;19;1261;-41
2023/12/19 09:55:43;;;;;;;;;;;;;;;18.39;61.32;101820.84;7391233;19;1138;-41
2023/12/19 09:58:12;;;;;;;;;;;;;;;18.33;61.62;101818.59;7390543;19;1085;-39
2023/12/19 10:00:41;;;;;;;;;;;;;;;18.28;61.61;101817.09;7396541;19;1861;-41
2023/12/19 10:03:09;;;;;;;;;;;;;;;18.77;60.86;101828.03;7396425;19;2158;-39
2023/12/19 10:05:37;;;;;;;;;;;;;;;19.13;59.82;101819.22;7394612;19;1942;-39
2023/12/19 10:08:07;;;;;;;;;;;;;;;19.15;59.73;101813.75;7395158;19;1738;-39
2023/12/19 10:10:50;;;;;;;;;;;;;;;18.89;60.29;101811.13;7391642;19;1328;-39
2023/12/19 10:13:29;;;;;;;;;;;;;;;18.72;60.80;101809.63;7396455;19;1423;-39
2023/12/19 10:16:04;;;;;;;;;;;;;;;18.59;61.07;101814.97;7394582;19;1401;-39
2023/12/19 10:18:33;;;;;;;;;;;;;;;18.51;61.05;101814.66;7397659;19;1707;-39
2023/12/19 10:21:10;;;;;;;;;;;;;;;18.47;61.17;101799.75;7394397;19;1843;-43
2023/12/19 10:23:38;;;;;;;;;;;;;;;18.56;60.95;101796.44;7396943;19;1115;-45
2023/12/19 10:26:07;;;;;;;;;;;;;;;18.98;59.79;101780.97;7396794;19;1546;-44
2023/12/19 10:28:38;;;;;;;;;;;;;;;19.14;58.97;101788.78;7396480;19;1811;-40
2023/12/19 10:31:11;;;;;;;;;;;;;;;18.94;59.49;101782.19;7398741;19;1443;-41
2023/12/19 10:33:43;;;;;;;;;;;;;;;18.76;59.99;101776.28;7399680;19;1114;-40
2023/12/19 10:36:12;;;;;;;;;;;;;;;18.67;60.40;101811.75;7398002;19;1504;-40
2023/12/19 10:38:50;;;;;;;;;;;;;;;18.56;60.61;101768.78;7397454;19;1814;-40
2023/12/19 10:41:22;;;;;;;;;;;;;;;18.46;60.82;101765.88;7378022;19;1883;-40
2023/12/19 10:43:56;;;;;;;;;;;;;;;18.45;61.20;101769.53;7397764;19;1838;-40
2023/12/19 10:46:27;;;;;;;;;;;;;;;18.85;59.99;101769.41;7396953;19;1469;-40
2023/12/19 10:48:55;;;;;;;;;;;;;;;19.23;59.03;101771.16;7397745;19;1389;-41
2023/12/19 10:51:26;;;;;;;;;;;;;;;19.05;59.04;101760.78;7397963;19;1274;-40
2023/12/19 10:53:58;;;;;;;;;;;;;;;18.81;60.03;101759.91;7397655;19;1813;-40
2023/12/19 10:56:27;;;;;;;;;;;;;;;18.59;60.21;101750.66;7397176;19;1331;-40
2023/12/19 10:59:00;;;;;;;;;;;;;;;18.52;60.68;101754.72;7397236;19;1668;-40
2023/12/19 11:01:31;;;;;;;;;;;;;;;18.39;60.74;101751.22;7395022;19;1848;-40
2023/12/19 11:04:02;;;;;;;;;;;;;;;18.35;60.98;101742.53;7398499;19;1127;-40
2023/12/19 11:06:32;;;;;;;;;;;;;;;18.38;60.80;101736.09;7395310;19;1398;-40
2023/12/19 11:09:05;;;;;;;;;;;;;;;18.82;59.92;101742.84;7395217;19;1672;-40
2023/12/19 11:11:38;;;;;;;;;;;;;;;19.10;59.40;101738.16;7394215;19;1563;-40
2023/12/19 11:14:09;;;;;;;;;;;;;;;18.90;59.87;101734.25;7395365;19;1672;-40
2023/12/19 11:16:41;;;;;;;;;;;;;;;18.62;60.51;101717.44;7394870;19;1106;-40
2023/12/19 11:19:13;;;;;;;;;;;;;;;18.51;60.99;101728.94;7395389;19;1032;-40
2023/12/19 11:21:45;;;;;;;;;;;;;;;18.40;61.14;101718.09;7392659;19;1850;-40
2023/12/19 11:24:18;;;;;;;;;;;;;;;18.33;61.24;101716.84;7393455;19;1829;-40
2023/12/19 11:26:48;;;;;;;;;;;;;;;18.29;61.25;101711.69;7393599;19;1416;-40
2023/12/19 11:29:31;;;;;;;;;;;;;;;18.61;60.60;101700.50;7393519;19;1855;-40
2023/12/19 11:32:02;;;;;;;;;;;;;;;19.04;59.72;101704.63;7392742;19;1744;-40
2023/12/19 11:34:30;;;;;;;;;;;;;;;18.94;59.75;101701.75;7393853;19;1854;-40
2023/12/19 11:37:06;;;;;;;;;;;;;;;18.72;60.38;101706.91;7393860;19;1038;-40
2023/12/19 11:39:34;;;;;;;;;;;;;;;18.53;60.81;101707.41;7394952;19;1050;-40
2023/12/19 11:42:03;;;;;;;;;;;;;;;18.45;61.24;101710.63;7377462;19;1854;-40
2023/12/19 11:44:34;;;;;;;;;;;;;;;18.37;61.39;101697.78;7393722;19;1496;-39
2023/12/19 11:47:18;;;;;;;;;;;;;;;18.36;61.16;101679.13;7392516;19;1500;-40
2023/12/19 11:49:47;;;;;;;;;;;;;;;18.40;61.24;101691.31;7393603;19;1496;-40
2023/12/19 11:52:27;;;;;;;;;;;;;;;18.84;60.19;101673.91;7392331;19;1823;-40
2023/12/19 11:54:56;;;;;;;;;;;;;;;19.03;59.88;101673.41;7392412;19;1847;-40
2023/12/19 11:57:24;;;;;;;;;;;;;;;18.86;60.04;101671.97;7392006;19;1727;-40
2023/12/19 11:59:54;;;;;;;;;;;;;;;18.66;60.54;101682.31;7392015;19;1492;-41
2023/12/19 12:02:34;;;;;;;;;;;;;;;18.53;60.91;101678.78;7391071;19;1852;-40
2023/12/19 12:05:12;;;;;;;;;;;;;;;18.40;61.22;101667.22;7391536;19;1337;-40
2023/12/19 12:07:47;;;;;;;;;;;;;;;18.31;61.65;101665.22;7392078;19;995;-40
2023/12/19 12:10:16;;;;;;;;;;;;;;;18.24;61.68;101662.09;7388238;19;1838;-43
2023/12/19 12:12:44;;;;;;;;;;;;;;;18.61;61.29;101662.16;7393300;19;1564;-42
2023/12/19 12:15:14;;;;;;;;;;;;;;;18.98;60.33;101656.81;7392779;19;1466;-42
2023/12/19 12:17:45;;;;;;;;;;;;;;;19.00;60.22;101652.19;7391172;19;1579;-43
2023/12/19 12:20:14;;;;;;;;;;;;;;;18.88;60.29;101670.06;7389991;19;1740;-43
2023/12/19 12:22:43;;;;;;;;;;;;;;;18.64;60.97;101660.13;7385910;19;1859;-42
2023/12/19 12:25:13;;;;;;;;;;;;;;;18.50;61.18;101641.50;7391865;19;1301;-42
2023/12/19 12:27:41;;;;;;;;;;;;;;;18.39;61.66;101657.50;7391977;19;1558;-40
2023/12/19 12:30:11;;;;;;;;;;;;;;;18.28;62.14;101647.53;7389115;19;1245;-40
2023/12/19 12:32:41;;;;;;;;;;;;;;;18.25;62.30;101647.78;7388862;19;1019;-40
2023/12/19 12:35:24;;;;;;;;;;;;;;;18.53;61.52;101646.66;7389546;19;1338;-40
2023/12/19 12:37:59;;;;;;;;;;;;;;;18.94;60.89;101621.34;7390631;19;2450;-40
2023/12/19 12:40:28;;;;;;;;;;;;;;;18.88;61.01;101643.25;7388289;19;1242;-40
2023/12/19 12:43:20;;;;;;;;;;;;;;;18.62;61.39;101629.03;7375911;19;1879;-40
2023/12/19 12:45:49;;;;;;;;;;;;;;;18.48;61.68;101640.75;7389468;19;1210;-40
2023/12/19 12:48:17;;;;;;;;;;;;;;;18.35;62.15;101634.59;7391017;19;1804;-40
2023/12/19 12:50:55;;;;;;;;;;;;;;;18.25;62.39;101619.16;7389190;19;1513;-40
2023/12/19 12:53:26;;;;;;;;;;;;;;;18.29;62.03;101614.47;7380377;19;1697;-40
2023/12/19 12:56:05;;;;;;;;;;;;;;;18.65;61.17;101616.28;7378664;19;2165;-40
2023/12/19 12:58:34;;;;;;;;;;;;;;;18.88;60.41;101616.47;7389746;19;1453;-40
2023/12/19 13:01:03;;;;;;;;;;;;;;;18.71;61.08;101624.84;7390420;19;1874;-40